createdAt,value
2023-01-19T00:02:24.984Z,101.12
2023-01-19T00:12:29.221Z,100.12
2023-01-19T00:22:31.922Z,99.91
2023-01-19T00:32:36.084Z,99.90
2023-01-19T00:42:41.814Z,100.58
2023-01-19T00:52:46.294Z,100.48
2023-01-19T01:02:50.585Z,99.86
2023-01-19T01:12:57.503Z,100.07
2023-01-19T01:23:02.221Z,99.54
2023-01-19T01:33:06.762Z,99.41
2023-01-19T01:43:12.360Z,99.71
2023-01-19T01:53:17.344Z,99.03
2023-01-19T02:03:20.285Z,99.29
2023-01-19T02:13:25.548Z,99.51
2023-01-19T02:23:44.960Z,99.52
2023-01-19T02:33:47.810Z,99.71
2023-01-19T02:43:53.560Z,99.99
2023-01-19T02:54:26.216Z,99.72
2023-01-19T03:04:40.294Z,100.17
2023-01-19T03:14:47.582Z,99.59
2023-01-19T03:24:53.659Z,99.72
2023-01-19T03:34:57.948Z,99.80
2023-01-19T03:45:03.293Z,99.76
2023-01-19T03:55:07.204Z,99.41
2023-01-19T04:05:11.531Z,99.83
2023-01-19T04:15:14.524Z,100.41
2023-01-19T04:25:18.485Z,100.38
2023-01-19T04:35:22.018Z,102.24
2023-01-19T04:45:26.223Z,103.27
2023-01-19T04:55:29.045Z,103.83
2023-01-19T05:05:33.102Z,103.72
2023-01-19T05:15:35.940Z,103.85
2023-01-19T05:25:41.228Z,103.65
2023-01-19T05:35:43.983Z,103.60
2023-01-19T05:45:48.172Z,103.31
2023-01-19T05:55:50.788Z,102.91
2023-01-19T06:05:55.216Z,102.89
2023-01-19T06:15:59.121Z,102.58
2023-01-19T06:26:03.827Z,102.25
2023-01-19T06:36:07.036Z,102.48
2023-01-19T06:46:11.237Z,102.15
2023-01-19T06:56:14.075Z,101.77
2023-01-19T07:06:18.937Z,102.13
2023-01-19T07:16:21.681Z,101.82
2023-01-19T07:26:27.886Z,101.89
2023-01-19T07:36:30.604Z,101.91
2023-01-19T07:46:34.682Z,101.70
2023-01-19T07:56:37.352Z,101.81
2023-01-19T08:06:41.968Z,101.90
2023-01-19T08:16:44.727Z,101.75
2023-01-19T08:26:49.385Z,101.41
2023-01-19T08:36:52.068Z,101.22
2023-01-19T08:46:56.108Z,101.09
2023-01-19T08:56:59.043Z,100.85
2023-01-19T09:07:03.061Z,99.89
2023-01-19T09:17:06.401Z,99.38
2023-01-19T09:27:10.580Z,99.50
2023-01-19T09:37:13.400Z,99.11
2023-01-19T09:47:22.597Z,98.38
2023-01-19T09:57:27.166Z,96.98
2023-01-19T10:07:45.104Z,96.05
2023-01-19T10:17:54.848Z,93.76
2023-01-19T10:28:00.553Z,92.66
2023-01-19T10:38:04.115Z,91.26
2023-01-19T10:48:09.178Z,92.53
2023-01-19T10:58:28.924Z,87.99
2023-01-19T11:08:33.232Z,85.55
2023-01-19T11:18:38.178Z,85.89
2023-01-19T11:28:47.185Z,85.04
2023-01-19T11:38:52.059Z,87.77
2023-01-19T11:49:02.286Z,81.90
2023-01-19T11:59:05.210Z,79.36
2023-01-19T12:09:18.333Z,79.61
2023-01-19T12:19:26.055Z,77.72
2023-01-19T12:29:33.639Z,77.10
2023-01-19T12:39:48.472Z,69.15
2023-01-19T12:49:56.305Z,68.59
2023-01-19T13:00:00.529Z,74.28
2023-01-19T13:10:36.570Z,72.41
2023-01-19T13:20:51.034Z,75.62
2023-01-19T13:30:57.549Z,80.33
2023-01-19T13:41:03.788Z,87.05
2023-01-19T13:51:08.514Z,91.36
2023-01-19T14:01:23.213Z,88.57
2023-01-19T14:11:26.340Z,84.55
2023-01-19T14:21:40.583Z,80.91
2023-01-19T14:31:44.936Z,84.84
2023-01-19T14:41:52.665Z,87.88
2023-01-19T14:51:55.920Z,89.33
2023-01-19T15:02:00.799Z,86.80
2023-01-19T15:12:03.761Z,89.70
2023-01-19T15:22:12.447Z,85.92
2023-01-19T15:32:16.277Z,83.03
2023-01-19T15:42:20.277Z,86.30
2023-01-19T15:52:22.985Z,85.77
2023-01-19T16:02:27.045Z,85.61
2023-01-19T16:12:29.941Z,85.74
2023-01-19T16:22:34.132Z,86.34
2023-01-19T16:32:36.993Z,87.41
2023-01-19T16:42:41.786Z,88.35
2023-01-19T16:52:44.457Z,88.06
2023-01-19T17:02:48.552Z,87.45
2023-01-19T17:12:51.241Z,87.73
2023-01-19T17:22:55.952Z,87.96
2023-01-19T17:32:58.659Z,88.00
2023-01-19T17:43:02.645Z,88.18
2023-01-19T17:53:05.395Z,88.38
2023-01-19T18:03:09.554Z,88.76
2023-01-19T18:13:12.255Z,89.25
2023-01-19T18:23:16.292Z,89.21
2023-01-19T18:33:18.981Z,89.31
2023-01-19T18:43:23.053Z,89.45
2023-01-19T18:53:25.697Z,89.56
2023-01-19T19:03:30.004Z,89.62
2023-01-19T19:13:32.686Z,89.73
2023-01-19T19:23:37.668Z,90.39
2023-01-19T19:33:40.713Z,90.66
2023-01-19T19:43:44.744Z,91.02
2023-01-19T19:53:50.924Z,91.15
2023-01-19T20:03:55.432Z,91.79
2023-01-19T20:13:58.123Z,92.03
2023-01-19T20:24:04.675Z,92.05
2023-01-19T20:34:09.233Z,92.27
2023-01-19T20:44:14.994Z,92.31
2023-01-19T20:54:19.955Z,92.69
2023-01-19T21:04:24.220Z,92.66
2023-01-19T21:14:27.161Z,92.64
2023-01-19T21:24:31.361Z,93.15
2023-01-19T21:34:34.074Z,92.74
2023-01-19T21:44:38.315Z,92.86
2023-01-19T21:54:41.418Z,92.81
2023-01-19T22:04:45.415Z,92.88
2023-01-19T22:14:48.033Z,92.60
2023-01-19T22:24:52.592Z,92.92
2023-01-19T22:34:55.226Z,93.42
2023-01-19T22:44:59.271Z,93.91
2023-01-19T22:55:01.953Z,93.98
2023-01-19T23:05:07.014Z,93.93
2023-01-19T23:15:10.225Z,94.14
2023-01-19T23:25:14.610Z,94.09
2023-01-19T23:35:17.609Z,94.01
2023-01-19T23:45:21.652Z,94.07
2023-01-19T23:55:24.323Z,93.88
